createdAt,value
2022-11-27T00:01:54.433Z,1024.55
2022-11-27T00:02:56.737Z,1024.56
2022-11-27T00:03:55.284Z,1024.52
2022-11-27T00:04:57.256Z,1024.55
2022-11-27T00:05:55.574Z,1024.57
2022-11-27T00:06:55.771Z,1024.56
2022-11-27T00:07:56.225Z,1024.61
2022-11-27T00:08:57.294Z,1024.62
2022-11-27T00:09:56.675Z,1024.64
2022-11-27T00:10:57.983Z,1024.62
2022-11-27T00:11:58.239Z,1024.69
2022-11-27T00:12:58.552Z,1024.65
2022-11-27T00:13:59.766Z,1024.74
2022-11-27T00:14:58.114Z,1024.77
2022-11-27T00:15:58.522Z,1024.77
2022-11-27T00:16:58.741Z,1024.79
2022-11-27T00:18:00.896Z,1024.72
2022-11-27T00:19:01.080Z,1024.74
2022-11-27T00:20:01.278Z,1024.75
2022-11-27T00:21:01.468Z,1024.71
2022-11-27T00:22:02.162Z,1024.72
2022-11-27T00:23:02.430Z,1024.72
2022-11-27T00:24:00.826Z,1024.72
2022-11-27T00:25:03.016Z,1024.68
2022-11-27T00:26:01.420Z,1024.71
2022-11-27T00:27:03.739Z,1024.72
2022-11-27T00:28:03.930Z,1024.74
2022-11-27T00:29:04.123Z,1024.82
2022-11-27T00:30:02.650Z,1024.82
2022-11-27T00:31:04.895Z,1024.76
2022-11-27T00:32:03.283Z,1024.79
2022-11-27T00:33:03.588Z,1024.72
2022-11-27T00:34:05.787Z,1024.69
2022-11-27T00:35:04.178Z,1024.68
2022-11-27T00:36:07.568Z,1024.67
2022-11-27T00:37:06.295Z,1024.61
2022-11-27T00:38:06.008Z,1024.62
2022-11-27T00:39:05.368Z,1024.57
2022-11-27T00:40:05.698Z,1024.60
2022-11-27T00:41:07.004Z,1024.58
2022-11-27T00:42:08.199Z,1024.53
2022-11-27T00:43:06.578Z,1024.51
2022-11-27T00:44:08.780Z,1024.48
2022-11-27T00:45:07.164Z,1024.40
2022-11-27T00:46:07.607Z,1024.37
2022-11-27T00:47:07.774Z,1024.33
2022-11-27T00:48:09.943Z,1024.37
2022-11-27T00:49:08.327Z,1024.37
2022-11-27T00:50:10.507Z,1024.38
2022-11-27T00:51:09.892Z,1024.45
2022-11-27T00:52:11.078Z,1024.42
2022-11-27T00:53:09.461Z,1024.43
2022-11-27T00:54:11.663Z,1024.45
2022-11-27T00:55:11.840Z,1024.42
2022-11-27T00:56:10.354Z,1024.44
2022-11-27T00:57:10.640Z,1024.41
2022-11-27T00:58:11.942Z,1024.43
2022-11-27T00:59:11.194Z,1024.47
2022-11-27T01:00:13.386Z,1024.48
2022-11-27T01:01:12.813Z,1024.45
2022-11-27T01:02:12.102Z,1024.47
2022-11-27T01:03:12.335Z,1024.46
2022-11-27T01:04:12.594Z,1024.43
2022-11-27T01:05:14.968Z,1024.48
2022-11-27T01:06:13.231Z,1024.42
2022-11-27T01:07:15.484Z,1024.40
2022-11-27T01:08:13.865Z,1024.36
2022-11-27T01:09:14.185Z,1024.34
2022-11-27T01:10:17.825Z,1024.30
2022-11-27T01:11:16.997Z,1024.29
2022-11-27T01:12:15.015Z,1024.31
2022-11-27T01:13:15.374Z,1024.29
2022-11-27T01:14:15.642Z,1024.31
2022-11-27T01:15:17.745Z,1024.32
2022-11-27T01:16:16.976Z,1024.37
2022-11-27T01:17:18.451Z,1024.41
2022-11-27T01:18:17.062Z,1024.44
2022-11-27T01:19:16.911Z,1024.39
2022-11-27T01:20:19.107Z,1024.39
2022-11-27T01:21:17.501Z,1024.38
2022-11-27T01:22:17.810Z,1024.35
2022-11-27T01:23:18.120Z,1024.37
2022-11-27T01:24:21.269Z,1024.35
2022-11-27T01:25:26.635Z,1024.39
2022-11-27T01:26:20.872Z,1024.42
2022-11-27T01:27:19.237Z,1024.37
2022-11-27T01:28:20.415Z,1024.37
2022-11-27T01:29:21.765Z,1024.37
2022-11-27T01:30:21.954Z,1024.43
2022-11-27T01:31:21.538Z,1024.38
2022-11-27T01:32:21.582Z,1024.35
2022-11-27T01:33:21.987Z,1024.34
2022-11-27T01:34:23.250Z,1024.36
2022-11-27T01:35:21.626Z,1024.38
2022-11-27T01:36:23.822Z,1024.38
2022-11-27T01:37:22.205Z,1024.33
2022-11-27T01:38:23.477Z,1024.32
2022-11-27T01:39:24.708Z,1024.28
2022-11-27T01:40:24.897Z,1024.30
2022-11-27T01:41:24.388Z,1024.30
2022-11-27T01:42:24.447Z,1024.28
2022-11-27T01:43:24.858Z,1024.29
2022-11-27T01:44:26.135Z,1024.34
2022-11-27T01:45:26.315Z,1024.33
2022-11-27T01:46:25.864Z,1024.31
2022-11-27T01:47:25.117Z,1024.28
2022-11-27T01:48:26.437Z,1024.24
2022-11-27T01:49:25.671Z,1024.20
2022-11-27T01:50:27.952Z,1024.18
2022-11-27T01:51:26.216Z,1024.12
2022-11-27T01:52:26.522Z,1024.10
2022-11-27T01:53:26.831Z,1024.09
2022-11-27T01:54:27.136Z,1024.12
2022-11-27T01:55:28.324Z,1024.13
2022-11-27T01:56:27.699Z,1024.14
2022-11-27T01:57:29.874Z,1024.12
2022-11-27T01:58:30.076Z,1024.15
2022-11-27T01:59:30.235Z,1024.14
2022-11-27T02:00:30.438Z,1024.15
2022-11-27T02:01:31.143Z,1024.22
2022-11-27T02:02:31.341Z,1024.24
2022-11-27T02:03:31.461Z,1024.24
2022-11-27T02:04:31.634Z,1024.17
2022-11-27T02:05:31.806Z,1024.15
2022-11-27T02:06:32.516Z,1024.14
2022-11-27T02:07:32.734Z,1024.09
2022-11-27T02:08:32.898Z,1024.08
2022-11-27T02:09:31.518Z,1024.03
2022-11-27T02:10:31.851Z,1024.05
2022-11-27T02:11:32.194Z,1024.06
2022-11-27T02:12:32.497Z,1024.00
2022-11-27T02:13:34.684Z,1024.02
2022-11-27T02:14:34.875Z,1024.03
2022-11-27T02:15:35.057Z,1024.03
2022-11-27T02:16:33.723Z,1024.02
2022-11-27T02:17:34.013Z,1023.99
2022-11-27T02:18:34.316Z,1024.04
2022-11-27T02:19:34.630Z,1023.99
2022-11-27T02:20:36.801Z,1024.03
2022-11-27T02:21:35.195Z,1024.01
2022-11-27T02:22:35.504Z,1024.01
2022-11-27T02:23:35.806Z,1023.97
2022-11-27T02:24:36.121Z,1023.97
2022-11-27T02:25:38.299Z,1023.95
2022-11-27T02:26:36.686Z,1023.98
2022-11-27T02:27:36.989Z,1023.99
2022-11-27T02:28:37.289Z,1024.03
2022-11-27T02:29:39.480Z,1024.00
2022-11-27T02:30:37.863Z,1023.99
2022-11-27T02:31:38.319Z,1024.00
2022-11-27T02:32:40.335Z,1023.97
2022-11-27T02:33:38.832Z,1024.04
2022-11-27T02:34:41.202Z,1024.04
2022-11-27T02:35:39.424Z,1024.08
2022-11-27T02:36:41.574Z,1024.07
2022-11-27T02:37:39.957Z,1024.10
2022-11-27T02:38:40.256Z,1024.08
2022-11-27T02:39:42.451Z,1024.07
2022-11-27T02:40:40.815Z,1024.08
2022-11-27T02:41:43.001Z,1024.06
2022-11-27T02:42:43.190Z,1024.05
2022-11-27T02:43:41.703Z,1024.08
2022-11-27T02:44:42.158Z,1024.04
2022-11-27T02:45:42.272Z,1024.03
2022-11-27T02:46:42.631Z,1023.97
2022-11-27T02:47:43.965Z,1023.94
2022-11-27T02:48:43.207Z,1023.91
2022-11-27T02:49:45.389Z,1023.91
2022-11-27T02:50:43.774Z,1023.87
2022-11-27T02:51:44.086Z,1023.87
2022-11-27T02:52:44.375Z,1023.83
2022-11-27T02:53:46.586Z,1023.83
2022-11-27T02:54:44.948Z,1023.87
2022-11-27T02:55:45.242Z,1023.88
2022-11-27T02:56:45.548Z,1023.87
2022-11-27T02:57:45.852Z,1023.89
2022-11-27T02:58:48.042Z,1023.89
2022-11-27T02:59:46.427Z,1023.88
2022-11-27T03:00:46.730Z,1023.92
2022-11-27T03:01:48.158Z,1023.84
2022-11-27T03:02:47.314Z,1023.84
2022-11-27T03:03:49.465Z,1023.80
2022-11-27T03:04:49.639Z,1023.79
2022-11-27T03:05:48.147Z,1023.79
2022-11-27T03:06:48.442Z,1023.77
2022-11-27T03:07:48.832Z,1023.80
2022-11-27T03:08:50.928Z,1023.78
2022-11-27T03:09:49.314Z,1023.76
2022-11-27T03:10:51.505Z,1023.74
2022-11-27T03:11:50.902Z,1023.76
2022-11-27T03:12:50.146Z,1023.74
2022-11-27T03:13:52.359Z,1023.78
2022-11-27T03:14:50.747Z,1023.79
2022-11-27T03:15:53.616Z,1023.74
2022-11-27T03:16:51.357Z,1023.77
2022-11-27T03:17:53.545Z,1023.72
2022-11-27T03:18:53.729Z,1023.67
2022-11-27T03:19:53.208Z,1023.70
2022-11-27T03:20:54.016Z,1023.64
2022-11-27T03:21:53.846Z,1023.66
2022-11-27T03:22:54.011Z,1023.66
2022-11-27T03:23:54.429Z,1023.61
2022-11-27T03:24:55.693Z,1023.64
2022-11-27T03:25:55.001Z,1023.66
2022-11-27T03:26:54.379Z,1023.64
2022-11-27T03:27:56.574Z,1023.61
2022-11-27T03:28:55.993Z,1023.65
2022-11-27T03:29:58.096Z,1023.72
2022-11-27T03:30:56.369Z,1023.66
2022-11-27T03:31:56.732Z,1023.71
2022-11-27T03:32:57.047Z,1023.71
2022-11-27T03:33:57.323Z,1023.73
2022-11-27T03:35:00.115Z,1023.67
2022-11-27T03:35:58.852Z,1023.68
2022-11-27T03:36:58.043Z,1023.67
2022-11-27T03:37:57.546Z,1023.65
2022-11-27T03:39:00.695Z,1023.72
2022-11-27T03:39:59.889Z,1023.64
2022-11-27T03:41:00.083Z,1023.65
2022-11-27T03:41:58.719Z,1023.63
2022-11-27T03:42:59.338Z,1023.64
2022-11-27T03:43:59.321Z,1023.61
2022-11-27T03:45:01.511Z,1023.53
2022-11-27T03:46:01.819Z,1023.50
2022-11-27T03:47:01.891Z,1023.55
2022-11-27T03:48:02.071Z,1023.57
2022-11-27T03:49:00.819Z,1023.50
2022-11-27T03:50:03.350Z,1023.49
2022-11-27T03:51:01.478Z,1023.51
2022-11-27T03:52:01.645Z,1023.52
2022-11-27T03:53:01.938Z,1023.55
2022-11-27T03:54:02.247Z,1023.59
2022-11-27T03:55:04.447Z,1023.62
2022-11-27T03:56:09.792Z,1023.65
2022-11-27T03:57:05.816Z,1023.65
2022-11-27T03:58:03.332Z,1023.74
2022-11-27T03:59:03.672Z,1023.73
2022-11-27T04:00:05.833Z,1023.77
2022-11-27T04:01:06.021Z,1023.79
2022-11-27T04:02:06.280Z,1023.75
2022-11-27T04:03:04.808Z,1023.73
2022-11-27T04:04:07.098Z,1023.73
2022-11-27T04:05:07.177Z,1023.67
2022-11-27T04:06:07.370Z,1023.63
2022-11-27T04:07:05.979Z,1023.58
2022-11-27T04:08:08.171Z,1023.59
2022-11-27T04:09:08.371Z,1023.59
2022-11-27T04:10:08.598Z,1023.58
2022-11-27T04:11:08.765Z,1023.58
2022-11-27T04:12:07.400Z,1023.48
2022-11-27T04:13:09.593Z,1023.46
2022-11-27T04:14:09.787Z,1023.37
2022-11-27T04:15:08.274Z,1023.36
2022-11-27T04:16:10.525Z,1023.35
2022-11-27T04:17:08.877Z,1023.30
2022-11-27T04:18:11.067Z,1023.34
2022-11-27T04:19:09.432Z,1023.29
2022-11-27T04:20:09.741Z,1023.24
2022-11-27T04:21:11.922Z,1023.20
2022-11-27T04:22:10.302Z,1023.18
2022-11-27T04:23:10.589Z,1023.14
2022-11-27T04:24:10.875Z,1023.15
2022-11-27T04:25:11.159Z,1023.17
2022-11-27T04:26:13.359Z,1023.18
2022-11-27T04:27:11.727Z,1023.10
2022-11-27T04:28:13.911Z,1023.11
2022-11-27T04:29:12.289Z,1023.16
2022-11-27T04:30:14.491Z,1023.18
2022-11-27T04:31:14.701Z,1023.11
2022-11-27T04:32:13.181Z,1023.17
2022-11-27T04:33:13.464Z,1023.14
2022-11-27T04:34:13.769Z,1023.11
2022-11-27T04:35:14.073Z,1023.09
2022-11-27T04:36:16.262Z,1023.10
2022-11-27T04:37:14.632Z,1023.11
2022-11-27T04:38:16.824Z,1023.10
2022-11-27T04:39:15.191Z,1023.12
2022-11-27T04:40:15.486Z,1023.09
2022-11-27T04:41:17.672Z,1023.06
2022-11-27T04:42:16.055Z,1023.05
2022-11-27T04:43:18.224Z,1023.04
2022-11-27T04:44:16.595Z,1023.00
2022-11-27T04:45:16.881Z,1022.96
2022-11-27T04:46:17.194Z,1022.97
2022-11-27T04:47:18.027Z,1022.90
2022-11-27T04:48:19.671Z,1022.93
2022-11-27T04:49:18.040Z,1022.89
2022-11-27T04:50:18.331Z,1022.85
2022-11-27T04:51:19.588Z,1022.84
2022-11-27T04:52:18.950Z,1022.87
2022-11-27T04:53:21.149Z,1022.84
2022-11-27T04:54:19.520Z,1022.76
2022-11-27T04:55:19.803Z,1022.82
2022-11-27T04:56:20.099Z,1022.71
2022-11-27T04:57:20.415Z,1022.75
2022-11-27T04:58:23.313Z,1022.69
2022-11-27T04:59:20.953Z,1022.66
2022-11-27T05:00:21.245Z,1022.67
2022-11-27T05:01:23.505Z,1022.70
2022-11-27T05:02:21.905Z,1022.64
2022-11-27T05:03:24.146Z,1022.70
2022-11-27T05:04:22.485Z,1022.70
2022-11-27T05:05:22.772Z,1022.69
2022-11-27T05:06:23.069Z,1022.65
2022-11-27T05:07:23.518Z,1022.70
2022-11-27T05:08:25.563Z,1022.73
2022-11-27T05:09:23.932Z,1022.73
2022-11-27T05:10:24.224Z,1022.76
2022-11-27T05:11:26.467Z,1022.78
2022-11-27T05:12:24.836Z,1022.79
2022-11-27T05:13:28.477Z,1022.77
2022-11-27T05:14:28.176Z,1022.74
2022-11-27T05:15:28.367Z,1022.72
2022-11-27T05:16:28.625Z,1022.70
2022-11-27T05:17:27.099Z,1022.73
2022-11-27T05:18:28.463Z,1022.68
2022-11-27T05:19:27.668Z,1022.70
2022-11-27T05:20:27.834Z,1022.70
2022-11-27T05:21:29.217Z,1022.69
2022-11-27T05:22:28.414Z,1022.76
2022-11-27T05:23:28.826Z,1022.66
2022-11-27T05:24:30.075Z,1022.67
2022-11-27T05:25:28.442Z,1022.71
2022-11-27T05:26:28.738Z,1022.70
2022-11-27T05:27:29.028Z,1022.70
2022-11-27T05:28:29.320Z,1022.75
2022-11-27T05:29:31.602Z,1022.77
2022-11-27T05:30:29.853Z,1022.83
2022-11-27T05:31:32.120Z,1022.84
2022-11-27T05:32:32.239Z,1022.88
2022-11-27T05:33:30.727Z,1022.85
2022-11-27T05:34:32.900Z,1022.80
2022-11-27T05:35:31.265Z,1022.82
2022-11-27T05:36:33.453Z,1022.83
2022-11-27T05:37:31.820Z,1022.85
2022-11-27T05:38:34.800Z,1022.82
2022-11-27T05:39:33.982Z,1022.78
2022-11-27T05:40:32.729Z,1022.79
2022-11-27T05:41:34.906Z,1022.82
2022-11-27T05:42:35.096Z,1022.81
2022-11-27T05:43:35.301Z,1022.84
2022-11-27T05:44:35.485Z,1022.84
2022-11-27T05:45:36.165Z,1022.86
2022-11-27T05:46:35.418Z,1022.87
2022-11-27T05:47:34.871Z,1022.86
2022-11-27T05:48:37.036Z,1022.88
2022-11-27T05:49:37.299Z,1022.91
2022-11-27T05:50:37.421Z,1022.92
2022-11-27T05:51:36.895Z,1022.90
2022-11-27T05:52:36.259Z,1022.90
2022-11-27T05:53:36.549Z,1022.86
2022-11-27T05:54:39.070Z,1022.88
2022-11-27T05:55:37.939Z,1022.89
2022-11-27T05:56:37.418Z,1022.86
2022-11-27T05:57:37.705Z,1022.83
2022-11-27T05:58:38.003Z,1022.82
2022-11-27T05:59:38.298Z,1022.82
2022-11-27T06:00:41.942Z,1022.79
2022-11-27T06:01:38.875Z,1022.73
2022-11-27T06:02:39.279Z,1022.74
2022-11-27T06:03:39.498Z,1022.73
2022-11-27T06:04:41.863Z,1022.72
2022-11-27T06:05:40.013Z,1022.65
2022-11-27T06:06:42.199Z,1022.64
2022-11-27T06:07:40.607Z,1022.62
2022-11-27T06:08:40.862Z,1022.65
2022-11-27T06:09:43.035Z,1022.71
2022-11-27T06:10:41.407Z,1022.69
2022-11-27T06:11:43.569Z,1022.67
2022-11-27T06:12:43.870Z,1022.68
2022-11-27T06:13:42.235Z,1022.65
2022-11-27T06:14:44.405Z,1022.67
2022-11-27T06:15:44.699Z,1022.66
2022-11-27T06:16:43.100Z,1022.62
2022-11-27T06:17:46.682Z,1022.60
2022-11-27T06:18:43.699Z,1022.58
2022-11-27T06:19:43.987Z,1022.57
2022-11-27T06:20:51.643Z,1022.59
2022-11-27T06:21:46.724Z,1022.59
2022-11-27T06:22:46.782Z,1022.58
2022-11-27T06:23:45.279Z,1022.57
2022-11-27T06:24:45.584Z,1022.58
2022-11-27T06:25:47.781Z,1022.55
2022-11-27T06:26:46.162Z,1022.58
2022-11-27T06:27:46.439Z,1022.57
2022-11-27T06:28:46.744Z,1022.51
2022-11-27T06:29:48.903Z,1022.53
2022-11-27T06:30:49.082Z,1022.48
2022-11-27T06:31:47.659Z,1022.45
2022-11-27T06:32:47.828Z,1022.51
2022-11-27T06:33:48.120Z,1022.47
2022-11-27T06:34:48.413Z,1022.44
2022-11-27T06:35:50.600Z,1022.43
2022-11-27T06:36:48.968Z,1022.37
2022-11-27T06:37:51.164Z,1022.32
2022-11-27T06:38:49.530Z,1022.30
2022-11-27T06:39:49.825Z,1022.30
2022-11-27T06:40:50.121Z,1022.29
2022-11-27T06:41:52.303Z,1022.32
2022-11-27T06:42:52.483Z,1022.28
2022-11-27T06:43:51.045Z,1022.32
2022-11-27T06:44:51.245Z,1022.32
2022-11-27T06:45:51.612Z,1022.27
2022-11-27T06:46:53.761Z,1022.30
2022-11-27T06:47:53.973Z,1022.16
2022-11-27T06:48:52.464Z,1022.12
2022-11-27T06:49:52.777Z,1022.02
2022-11-27T06:50:54.033Z,1022.06
2022-11-27T06:51:55.263Z,1022.03
2022-11-27T06:52:53.645Z,1022.04
2022-11-27T06:53:53.954Z,1022.04
2022-11-27T06:54:54.258Z,1022.05
2022-11-27T06:55:56.443Z,1022.00
2022-11-27T06:56:56.630Z,1021.98
2022-11-27T06:57:56.823Z,1022.07
2022-11-27T06:58:55.457Z,1022.09
2022-11-27T06:59:55.759Z,1022.12
2022-11-27T07:00:57.069Z,1022.07
2022-11-27T07:01:58.315Z,1022.06
2022-11-27T07:02:56.669Z,1022.03
2022-11-27T07:03:58.875Z,1022.05
2022-11-27T07:05:00.008Z,1022.00
2022-11-27T07:05:57.544Z,1022.00
2022-11-27T07:06:57.863Z,1021.99
2022-11-27T07:07:58.296Z,1021.94
2022-11-27T07:09:01.334Z,1021.89
2022-11-27T07:10:00.573Z,1021.93
2022-11-27T07:10:58.972Z,1021.86
2022-11-27T07:11:59.293Z,1021.87
2022-11-27T07:13:00.556Z,1021.73
2022-11-27T07:13:59.939Z,1021.93
2022-11-27T07:15:04.082Z,1021.94
2022-11-27T07:16:00.621Z,1021.91
2022-11-27T07:17:03.678Z,1021.84
2022-11-27T07:18:01.218Z,1021.89
2022-11-27T07:19:03.387Z,1021.79
2022-11-27T07:20:04.509Z,1021.88
2022-11-27T07:21:04.676Z,1021.89
2022-11-27T07:22:03.322Z,1021.89
2022-11-27T07:23:03.670Z,1021.97
2022-11-27T07:24:03.911Z,1021.92
2022-11-27T07:25:05.270Z,1021.98
2022-11-27T07:26:04.506Z,1021.99
2022-11-27T07:27:04.846Z,1022.03
2022-11-27T07:28:04.228Z,1022.07
2022-11-27T07:29:04.539Z,1022.08
2022-11-27T07:30:06.747Z,1022.10
2022-11-27T07:31:06.203Z,1022.06
2022-11-27T07:32:07.404Z,1021.99
2022-11-27T07:33:05.792Z,1021.99
2022-11-27T07:34:14.123Z,1022.00
2022-11-27T07:35:09.166Z,1021.97
2022-11-27T07:36:06.705Z,1022.04
2022-11-27T07:37:08.866Z,1022.02
2022-11-27T07:38:07.359Z,1022.04
2022-11-27T07:39:07.559Z,1022.03
2022-11-27T07:40:09.756Z,1022.03
2022-11-27T07:41:09.117Z,1022.00
2022-11-27T07:42:36.861Z,1022.04
2022-11-27T07:43:09.836Z,1021.96
2022-11-27T07:44:09.110Z,1021.83
2022-11-27T07:45:11.286Z,1021.86
2022-11-27T07:46:11.638Z,1021.79
2022-11-27T07:47:11.672Z,1021.76
2022-11-27T07:48:11.859Z,1021.76
2022-11-27T07:49:12.591Z,1021.75
2022-11-27T07:50:12.707Z,1021.75
2022-11-27T07:51:12.880Z,1021.75
2022-11-27T07:52:13.089Z,1021.77
2022-11-27T07:53:13.274Z,1021.80
2022-11-27T07:54:14.013Z,1021.78
2022-11-27T07:55:14.271Z,1021.77
2022-11-27T07:56:14.358Z,1021.80
2022-11-27T07:57:14.554Z,1021.73
2022-11-27T07:58:13.346Z,1021.76
2022-11-27T07:59:15.530Z,1021.72
2022-11-27T08:00:13.808Z,1021.74
2022-11-27T08:01:14.101Z,1021.78
2022-11-27T08:02:14.300Z,1021.78
2022-11-27T08:03:14.638Z,1021.80
2022-11-27T08:04:16.901Z,1021.84
2022-11-27T08:05:15.306Z,1021.85
2022-11-27T08:06:15.523Z,1021.87
2022-11-27T08:07:15.886Z,1021.86
2022-11-27T08:08:16.204Z,1021.80
2022-11-27T08:09:18.379Z,1021.89
2022-11-27T08:10:16.791Z,1021.80
2022-11-27T08:11:17.110Z,1021.81
2022-11-27T08:12:17.483Z,1021.84
2022-11-27T08:13:19.659Z,1021.79
2022-11-27T08:14:17.935Z,1021.74
2022-11-27T08:15:18.267Z,1021.71
2022-11-27T08:16:18.658Z,1021.72
2022-11-27T08:17:19.804Z,1021.74
2022-11-27T08:18:19.076Z,1021.71
2022-11-27T08:19:21.280Z,1021.69
2022-11-27T08:20:19.677Z,1021.65
2022-11-27T08:21:20.026Z,1021.71
2022-11-27T08:22:20.351Z,1021.75
2022-11-27T08:23:22.553Z,1021.73
2022-11-27T08:24:21.960Z,1021.68
2022-11-27T08:25:21.223Z,1021.74
2022-11-27T08:26:21.577Z,1021.74
2022-11-27T08:27:21.914Z,1021.73
2022-11-27T08:28:24.109Z,1021.74
2022-11-27T08:29:22.390Z,1021.72
2022-11-27T08:30:22.732Z,1021.75
2022-11-27T08:31:25.942Z,1021.74
2022-11-27T08:32:23.343Z,1021.76
2022-11-27T08:33:25.541Z,1021.80
2022-11-27T08:34:23.973Z,1021.82
2022-11-27T08:35:24.286Z,1021.86
2022-11-27T08:36:26.477Z,1021.86
2022-11-27T08:37:24.758Z,1021.83
2022-11-27T08:38:25.096Z,1021.87
2022-11-27T08:39:27.280Z,1021.77
2022-11-27T08:40:25.689Z,1021.78
2022-11-27T08:41:28.861Z,1021.75
2022-11-27T08:42:26.285Z,1021.76
2022-11-27T08:43:26.615Z,1021.80
2022-11-27T08:44:26.951Z,1021.80
2022-11-27T08:45:29.176Z,1021.77
2022-11-27T08:46:29.424Z,1021.63
2022-11-27T08:47:27.830Z,1021.65
2022-11-27T08:48:28.350Z,1021.59
2022-11-27T08:49:31.337Z,1021.57
2022-11-27T08:50:28.873Z,1021.55
2022-11-27T08:51:33.462Z,1021.55
2022-11-27T08:52:29.351Z,1021.51
2022-11-27T08:53:30.560Z,1021.53
2022-11-27T08:54:29.833Z,1021.53
2022-11-27T08:55:31.171Z,1021.52
2022-11-27T08:56:32.367Z,1021.59
2022-11-27T08:57:30.782Z,1021.58
2022-11-27T08:58:31.114Z,1021.58
2022-11-27T08:59:34.526Z,1021.59
2022-11-27T09:00:31.704Z,1021.59
2022-11-27T09:01:34.876Z,1021.55
2022-11-27T09:02:33.723Z,1021.54
2022-11-27T09:03:33.373Z,1021.53
2022-11-27T09:04:33.755Z,1021.45
2022-11-27T09:05:34.911Z,1021.39
2022-11-27T09:06:34.273Z,1021.34
2022-11-27T09:07:34.516Z,1021.39
2022-11-27T09:08:35.931Z,1021.41
2022-11-27T09:09:36.051Z,1021.36
2022-11-27T09:10:36.241Z,1021.37
2022-11-27T09:11:35.802Z,1021.33
2022-11-27T09:12:38.160Z,1021.27
2022-11-27T09:13:37.213Z,1021.32
2022-11-27T09:14:37.786Z,1021.27
2022-11-27T09:15:37.773Z,1021.28
2022-11-27T09:16:39.467Z,1021.26
2022-11-27T09:17:37.339Z,1021.33
2022-11-27T09:18:37.726Z,1021.33
2022-11-27T09:19:37.965Z,1021.29
2022-11-27T09:20:38.083Z,1021.24
2022-11-27T09:21:39.422Z,1021.26
2022-11-27T09:22:38.650Z,1021.18
2022-11-27T09:23:39.895Z,1021.17
2022-11-27T09:24:38.593Z,1021.23
2022-11-27T09:25:41.410Z,1021.16
2022-11-27T09:26:38.974Z,1021.16
2022-11-27T09:27:41.163Z,1021.22
2022-11-27T09:28:41.357Z,1021.24
2022-11-27T09:29:40.555Z,1021.31
2022-11-27T09:30:41.746Z,1021.30
2022-11-27T09:31:42.007Z,1021.35
2022-11-27T09:32:42.635Z,1021.33
2022-11-27T09:33:40.915Z,1021.30
2022-11-27T09:34:43.540Z,1021.31
2022-11-27T09:35:43.272Z,1021.20
2022-11-27T09:36:43.489Z,1021.32
2022-11-27T09:37:44.137Z,1021.32
2022-11-27T09:38:43.257Z,1021.28
2022-11-27T09:39:42.672Z,1021.30
2022-11-27T09:40:44.815Z,1021.25
2022-11-27T09:41:46.497Z,1021.23
2022-11-27T09:42:43.554Z,1021.20
2022-11-27T09:43:45.732Z,1021.18
2022-11-27T09:44:44.148Z,1021.18
2022-11-27T09:45:44.500Z,1021.16
2022-11-27T09:46:44.827Z,1021.14
2022-11-27T09:47:45.166Z,1021.16
2022-11-27T09:48:47.385Z,1021.20
2022-11-27T09:49:45.790Z,1021.19
2022-11-27T09:50:46.227Z,1021.17
2022-11-27T09:51:46.445Z,1021.19
2022-11-27T09:52:48.609Z,1021.18
2022-11-27T09:53:49.748Z,1021.19
2022-11-27T09:54:52.141Z,1021.15
2022-11-27T09:55:50.480Z,1021.22
2022-11-27T09:56:47.907Z,1021.20
2022-11-27T09:57:50.083Z,1021.19
2022-11-27T09:58:50.276Z,1021.22
2022-11-27T09:59:48.893Z,1021.22
2022-11-27T10:00:50.995Z,1021.17
2022-11-27T10:01:51.304Z,1021.15
2022-11-27T10:02:49.840Z,1021.22
2022-11-27T10:03:51.875Z,1021.15
2022-11-27T10:05:12.760Z,1021.13
2022-11-27T10:05:51.508Z,1021.09
2022-11-27T10:06:50.789Z,1021.07
2022-11-27T10:07:51.213Z,1021.01
2022-11-27T10:08:53.321Z,1021.07
2022-11-27T10:09:53.507Z,1021.09
2022-11-27T10:10:53.719Z,1021.03
2022-11-27T10:11:52.367Z,1020.97
2022-11-27T10:12:52.706Z,1020.91
2022-11-27T10:13:53.049Z,1021.00
2022-11-27T10:14:55.230Z,1020.95
2022-11-27T10:15:53.634Z,1020.98
2022-11-27T10:16:53.984Z,1020.99
2022-11-27T10:17:54.555Z,1021.02
2022-11-27T10:18:54.607Z,1021.01
2022-11-27T10:19:56.796Z,1021.03
2022-11-27T10:20:57.086Z,1021.04
2022-11-27T10:21:58.141Z,1021.03
2022-11-27T10:22:56.698Z,1021.09
2022-11-27T10:23:56.105Z,1021.01
2022-11-27T10:24:56.316Z,1021.04
2022-11-27T10:25:58.504Z,1021.14
2022-11-27T10:26:56.917Z,1021.16
2022-11-27T10:27:57.261Z,1021.02
2022-11-27T10:28:57.607Z,1021.05
2022-11-27T10:29:59.790Z,1021.07
2022-11-27T10:30:58.078Z,1020.99
2022-11-27T10:32:00.321Z,1020.93
2022-11-27T10:33:01.965Z,1020.90
2022-11-27T10:33:58.998Z,1020.86
2022-11-27T10:35:01.182Z,1020.83
2022-11-27T10:35:59.599Z,1020.88
2022-11-27T10:36:59.943Z,1020.88
2022-11-27T10:38:06.513Z,1020.92
2022-11-27T10:39:01.466Z,1020.90
2022-11-27T10:40:02.645Z,1020.95
2022-11-27T10:41:01.056Z,1020.92
2022-11-27T10:42:01.396Z,1020.93
2022-11-27T10:43:01.732Z,1020.82
2022-11-27T10:44:02.068Z,1020.86
2022-11-27T10:45:04.255Z,1020.79
2022-11-27T10:46:02.753Z,1020.79
2022-11-27T10:47:02.956Z,1020.75
2022-11-27T10:48:05.152Z,1020.89
2022-11-27T10:49:06.283Z,1020.90
2022-11-27T10:50:06.474Z,1020.91
2022-11-27T10:51:05.018Z,1020.92
2022-11-27T10:52:05.375Z,1020.88
2022-11-27T10:53:05.594Z,1020.86
2022-11-27T10:54:06.964Z,1020.82
2022-11-27T10:55:07.166Z,1020.75
2022-11-27T10:56:05.564Z,1020.73
2022-11-27T10:57:05.906Z,1020.69
2022-11-27T10:58:06.242Z,1020.63
2022-11-27T10:59:08.429Z,1020.63
2022-11-27T11:00:09.583Z,1020.57
2022-11-27T11:01:08.236Z,1020.56
2022-11-27T11:02:08.335Z,1020.59
2022-11-27T11:03:09.533Z,1020.56
2022-11-27T11:04:31.242Z,1020.62
2022-11-27T11:05:32.866Z,1020.59
2022-11-27T11:06:20.662Z,1020.57
2022-11-27T11:07:12.464Z,1020.61
2022-11-27T11:08:10.603Z,1020.61
2022-11-27T11:09:10.200Z,1020.65
2022-11-27T11:10:09.612Z,1020.60
2022-11-27T11:11:12.802Z,1020.62
2022-11-27T11:12:10.115Z,1020.67
2022-11-27T11:13:12.299Z,1020.67
2022-11-27T11:14:10.599Z,1020.63
2022-11-27T11:15:10.820Z,1020.57
2022-11-27T11:16:14.690Z,1020.58
2022-11-27T11:17:12.404Z,1020.49
2022-11-27T11:18:13.789Z,1020.50
2022-11-27T11:19:15.243Z,1020.54
2022-11-27T11:20:12.427Z,1020.54
2022-11-27T11:21:14.604Z,1020.53
2022-11-27T11:22:14.574Z,1020.53
2022-11-27T11:23:13.242Z,1020.60
2022-11-27T11:24:15.448Z,1020.52
2022-11-27T11:25:13.740Z,1020.50
2022-11-27T11:26:15.944Z,1020.45
2022-11-27T11:27:14.355Z,1020.45
2022-11-27T11:28:14.698Z,1020.37
2022-11-27T11:29:15.884Z,1020.38
2022-11-27T11:30:17.146Z,1020.35
2022-11-27T11:31:17.350Z,1020.25
2022-11-27T11:32:17.557Z,1020.13
2022-11-27T11:33:17.744Z,1020.29
2022-11-27T11:34:17.945Z,1020.30
2022-11-27T11:35:18.655Z,1020.33
2022-11-27T11:36:18.854Z,1020.31
2022-11-27T11:37:19.020Z,1020.31
2022-11-27T11:38:19.227Z,1020.27
2022-11-27T11:39:19.899Z,1020.26
2022-11-27T11:40:20.077Z,1020.22
2022-11-27T11:41:20.235Z,1020.17
2022-11-27T11:42:20.388Z,1020.11
2022-11-27T11:43:19.170Z,1020.16
2022-11-27T11:44:21.362Z,1020.15
2022-11-27T11:45:19.781Z,1020.15
2022-11-27T11:46:20.246Z,1020.07
2022-11-27T11:47:22.317Z,1020.04
2022-11-27T11:48:20.631Z,1020.05
2022-11-27T11:49:20.851Z,1020.02
2022-11-27T11:50:21.085Z,1019.96
2022-11-27T11:51:26.337Z,1020.01
2022-11-27T11:52:24.501Z,1020.01
2022-11-27T11:53:21.803Z,1020.01
2022-11-27T11:54:22.042Z,1019.99
2022-11-27T11:55:22.265Z,1019.96
2022-11-27T11:56:24.455Z,1019.92
2022-11-27T11:57:22.751Z,1019.93
2022-11-27T11:58:24.965Z,1019.90
2022-11-27T11:59:23.218Z,1019.88
2022-11-27T12:00:29.429Z,1019.88
2022-11-27T12:01:27.925Z,1019.84
2022-11-27T12:02:24.265Z,1019.84
2022-11-27T12:03:26.415Z,1019.83
2022-11-27T12:04:24.885Z,1019.85
2022-11-27T12:05:25.108Z,1019.74
2022-11-27T12:06:25.439Z,1019.75
2022-11-27T12:07:25.841Z,1019.70
2022-11-27T12:08:27.963Z,1019.68
2022-11-27T12:09:28.145Z,1019.67
2022-11-27T12:10:26.682Z,1019.61